• Join FlightAware (Why Join?)
  • Login
  • US Flag 
07:07AM EDT


 

Airport Tracker/Info


-or-


 

Live Flight TrackerFlight Track Log ✈ UAL33 ✈ 24-Jun-2013 ✈ KIAH - KORD

Flight Track Log - Related Links

Times and Time Zones

All times are in EDT time to prevent confusion due to time zone crossing. See the UAL33 flight status page for this flight to view local times or setup timezone preferences in your user account.

Time Position Orientation Groundspeed Altitude Reporting Facility
EDT Latitude Longitude Course Direction KTS MPH feet Rate Location/Type
05:38PM 29.9687 -95.3461 244° Southwest 159 183 200  Level FlightAware ADS-B
05:38PM 29.9582 -95.3398 153° Southeast 159 183 800 2,100 Climbing FlightAware ADS-B
05:38PM 29.9484 -95.3332 150° Southeast 166 191 1,300 1,860 Climbing FlightAware ADS-B
05:38PM 29.9461 -95.3308 138° Southeast 178 205 1,400 720 Climbing FlightAware ADS-B
05:38PM 29.9436 -95.3272 129° Southeast 187 215 1,400 720 Level FlightAware ADS-B
05:38PM 29.9422 -95.3241 118° Southeast 193 222 1,500 1,500 Climbing FlightAware ADS-B
05:39PM 29.9404 -95.3152 103° East 204 235 1,700 1,380 Climbing FlightAware ADS-B
05:39PM 29.9404 -95.3094 90° East 221 254 1,800 1,200 Climbing FlightAware ADS-B
05:39PM 29.9415 -95.3036 78° East 233 268 1,900 1,320 Climbing FlightAware ADS-B
05:39PM 29.9429 -95.2991 70° East 238 274 2,000 1,680 Climbing FlightAware ADS-B
05:39PM 29.9445 -95.2954 63° Northeast 246 283 2,100 1,980 Climbing FlightAware ADS-B
05:39PM 29.9463 -95.2922 57° Northeast 254 292 2,200 1,980 Climbing FlightAware ADS-B
05:39PM 29.9485 -95.2889 52° Northeast 259 298 2,300 2,220 Climbing FlightAware ADS-B
05:39PM 29.9528 -95.2843 43° Northeast 265 305 2,500 2,220 Climbing FlightAware ADS-B
05:39PM 29.9564 -95.2812 37° Northeast 270 311 2,600 1,680 Climbing FlightAware ADS-B
05:39PM 29.9599 -95.2788 31° Northeast 274 315 2,700 2,520 Climbing FlightAware ADS-B
05:39PM 29.9634 -95.2769 25° Northeast 277 319 2,900 3,420 Climbing FlightAware ADS-B
05:39PM 29.9686 -95.2749 18° North 281 323 3,100 2,520 Climbing FlightAware ADS-B
05:39PM 29.9724 -95.2739 13° North 283 326 3,200 1,980 Climbing FlightAware ADS-B
05:39PM 29.9768 -95.2732 North 285 328 3,300 1,980 Climbing FlightAware ADS-B
05:39PM 29.9811 -95.2729 North 285 328 3,400 2,640 Climbing FlightAware ADS-B
05:40PM 29.9882 -95.2732 358° North 285 328 3,700 3,600 Climbing FlightAware ADS-B
05:40PM 30.0114 -95.2758 354° North 286 329 4,800 3,480 Climbing FlightAware ADS-B
05:40PM 30.0263 -95.2802 340° North 288 331 5,400 3,300 Climbing FlightAware ADS-B
05:41PM 30.0703 -95.3147 325° Northwest 291 335 7,700 3,480 Climbing FlightAware ADS-B
05:41PM 30.0860 -95.3314 316° Northwest 292 336 8,600 3,420 Climbing FlightAware ADS-B
05:41PM 30.0973 -95.3450 315° West 296 341 9,300 3,120 Climbing FlightAware ADS-B
05:41PM 30.1023 -95.3500 319° Northwest 298 343 9,500 2,520 Climbing FlightAware ADS-B
05:41PM 30.1056 -95.3528 324° Northwest 299 344 9,600 2,640 Climbing FlightAware ADS-B
05:41PM 30.1124 -95.3579 327° Northwest 300 345 9,900 3,000 Climbing FlightAware ADS-B
05:41PM 30.1224 -95.3651 328° Northwest 304 350 10,300 2,280 Climbing FlightAware ADS-B
05:42PM 30.1825 -95.4093 328° Northwest 344 396 12,000 2,700 Climbing FlightAware ADS-B
05:43PM 30.2814 -95.4777 329° Northwest 359 413 15,600 2,940 Climbing FlightAware ADS-B
05:44PM 30.3323 -95.5126 329° Northwest 376 433 17,100 2,700 Climbing FlightAware ADS-B
05:44PM 30.3778 -95.5435 330° Northwest 383 441 18,500 2,520 Climbing FlightAware ADS-B
05:45PM 30.4282 -95.5782 329° Northwest 392 451 19,800 2,520 Climbing FlightAware ADS-B
05:46PM 30.4802 -95.6140 329° Northwest 395 455 21,300 2,580 Climbing FlightAware ADS-B
05:46PM 30.5111 -95.6352 329° Northwest 398 458 22,100 2,400 Climbing FlightAware ADS-B
05:46PM 30.5394 -95.6532 331° Northwest 400 460 22,800 2,520 Climbing FlightAware ADS-B
05:47PM 30.5902 -95.6812 335° Northwest 401 461 24,100 2,160 Climbing FlightAware ADS-B
05:49PM 30.8002 -95.7936 335° Northwest 423 487 28,300 1,980 Climbing FlightAware ADS-B
05:49PM 30.8540 -95.8225 335° Northwest 430 495 29,200 1,740 Climbing FlightAware ADS-B
05:50PM 30.9096 -95.8524 335° Northwest 438 504 30,100 1,740 Climbing FlightAware ADS-B
05:50PM 30.9651 -95.8822 335° Northwest 442 509 31,000 1,800 Climbing FlightAware ADS-B
05:51PM 31.0829 -95.9457 335° Northwest 449 517 32,900 1,800 Climbing FlightAware ADS-B
05:52PM 31.1148 -95.9609 338° Northwest 449 517 33,400 1,680 Climbing FlightAware ADS-B
05:52PM 31.1382 -95.9696 342° North 450 518 33,700 1,680 Climbing FlightAware ADS-B
05:52PM 31.1576 -95.9755 345° North 451 519 34,000 1,500 Climbing FlightAware ADS-B
05:52PM 31.2205 -95.9903 349° North 454 522 34,700 1,380 Climbing FlightAware ADS-B
05:55PM 31.5610 -96.0703 349° North 446 513 38,700 1,020 Climbing FlightAware ADS-B
05:56PM 31.7122 -96.1058 349° North 445 512 39,000 120 Climbing FlightAware ADS-B
05:57PM 31.8220 -96.1317 349° North 447 514 39,000  Level FlightAware ADS-B
05:59PM 32.0620 -96.1890 348° North 446 513 39,000  Level FlightAware
06:00PM 32.1827 -96.2150 351° North 450 518 39,000  Level FlightAware ADS-B
06:01PM 32.2506 -96.2189 357° North 456 525 39,000  Level FlightAware ADS-B
06:01PM 32.3240 -96.2200 359° North 456 525 39,000  Level FlightAware
06:03PM 32.4747 -96.2216 359° North 457 526 39,000  Level FlightAware ADS-B
06:04PM 32.5920 -96.2230 359° North 467 537 39,000  Level FlightAware
06:04PM 32.6900 -96.2240 360° North 469 540 39,000  Level FlightAware
06:05PM 32.7740 -96.2250 359° North 469 540 39,000  Level FlightAware
06:06PM 32.8660 -96.2260 359° North 471 542 39,000  Level FlightAware
06:06PM 32.9640 -96.2270 360° North 473 544 39,000  Level FlightAware
06:07PM 33.0510 -96.2280 359° North 473 544 39,000  Level FlightAware
06:08PM 33.1370 -96.2290 359° North 473 544 39,000  Level FlightAware
06:08PM 33.2350 -96.2310 359° North 476 548 39,000  Level FlightAware
06:09PM 33.3290 -96.2320 359° North 476 548 39,000  Level FlightAware
06:10PM 33.4240 -96.2330 359° North 476 548 39,000 240 Level FlightAware
06:11PM 33.5630 -96.2240 North 484 557 39,500 540 Climbing FlightAware
06:12PM 33.6610 -96.1920 15° North 485 558 40,000 540 Climbing FlightAware
06:12PM 33.7470 -96.1630 16° North 488 562 40,300 540 Climbing FlightAware
06:13PM 33.8380 -96.1320 16° North 487 560 40,800 480 Climbing FlightAware
06:14PM 33.9350 -96.0990 16° North 485 558 41,000 120 Climbing FlightAware
06:14PM 34.0200 -96.0690 16° North 484 557 41,000  Level FlightAware
06:15PM 34.1150 -96.0370 16° North 483 556 41,000  Level FlightAware
06:16PM 34.2060 -96.0060 16° North 481 554 41,000  Level FlightAware
06:17PM 34.2910 -95.9770 16° North 483 556 41,000  Level FlightAware
06:17PM 34.3810 -95.9450 16° North 482 555 41,000  Level FlightAware
06:18PM 34.4690 -95.9150 16° North 483 556 41,000  Level FlightAware
06:19PM 34.5670 -95.8810 16° North 486 559 41,000  Level FlightAware
06:19PM 34.6450 -95.8540 16° North 485 558 41,000  Level FlightAware
06:20PM 34.7410 -95.8200 16° North 487 560 41,000  Level FlightAware
06:21PM 34.8330 -95.7830 18° North 493 567 41,000  Level FlightAware
06:21PM 34.9110 -95.7110 37° Northeast 504 580 41,000  Level FlightAware
06:22PM 34.9790 -95.6320 44° Northeast 500 575 41,000  Level FlightAware
06:23PM 35.0370 -95.5640 44° Northeast 500 575 41,000  Level FlightAware
06:23PM 35.0870 -95.5040 44° Northeast 500 575 41,000  Level FlightAware
06:24PM 35.1550 -95.4240 44° Northeast 500 575 41,000  Level FlightAware
06:24PM 35.1520 -95.2950 92° East 510 587 41,000  Level FlightAware
06:25PM 35.1920 -95.1990 63° Northeast 510 587 41,000  Level FlightAware
06:26PM 35.2580 -95.0380 63° Northeast 513 590 41,000  Level FlightAware
06:27PM 35.3020 -94.9300 63° Northeast 512 589 41,000  Level FlightAware
06:28PM 35.3480 -94.8180 63° Northeast 513 590 41,000  Level FlightAware
06:28PM 35.3870 -94.7230 63° Northeast 515 593 41,000  Level FlightAware
06:29PM 35.4360 -94.6030 63° Northeast 514 592 41,000  Level FlightAware
06:30PM 35.4790 -94.4970 63° Northeast 511 588 41,000  Level FlightAware
06:30PM 35.5220 -94.3890 64° Northeast 510 587 41,000  Level FlightAware
06:31PM 35.5690 -94.2740 63° Northeast 511 588 41,000  Level FlightAware
06:32PM 35.6110 -94.1700 64° Northeast 510 587 41,000  Level FlightAware
06:32PM 35.6350 -94.1360 49° Northeast 503 579 41,000  Level FlightAware
06:32PM 35.6910 -94.0950 31° Northeast 493 567 41,000  Level FlightAware
06:33PM 35.7800 -94.0670 14° North 491 565 41,000  Level FlightAware
06:34PM 35.8760 -94.0360 15° North 497 572 41,000  Level FlightAware
06:34PM 35.9660 -94.0070 15° North 499 574 41,000  Level FlightAware
06:35PM 36.0660 -93.9750 15° North 500 575 41,000  Level FlightAware
06:36PM 36.1590 -93.9450 15° North 498 573 41,000  Level FlightAware
06:37PM 36.2480 -93.9160 15° North 495 570 41,000  Level FlightAware
06:37PM 36.3470 -93.8850 14° North 496 571 41,000  Level FlightAware
06:38PM 36.4360 -93.8560 15° North 498 573 41,000  Level FlightAware
06:39PM 36.5330 -93.8240 15° North 503 579 41,000  Level FlightAware
06:39PM 36.6300 -93.7930 14° North 503 579 41,000  Level FlightAware
06:40PM 36.7190 -93.7640 15° North 504 580 41,000  Level FlightAware
06:41PM 36.8140 -93.7320 15° North 504 580 41,000  Level FlightAware
06:41PM 36.9050 -93.7030 14° North 503 579 41,000  Level FlightAware
06:42PM 37.0080 -93.6680 15° North 504 580 41,000  Level FlightAware
06:43PM 37.1000 -93.6240 21° North 501 577 41,000  Level FlightAware
06:44PM 37.1810 -93.5740 26° Northeast 500 575 41,000  Level FlightAware
06:44PM 37.2700 -93.5200 26° Northeast 500 575 41,000  Level FlightAware
06:45PM 37.3560 -93.4670 26° Northeast 501 577 41,000  Level FlightAware
06:46PM 37.4490 -93.4100 26° Northeast 499 574 41,000  Level FlightAware
06:46PM 37.5290 -93.3610 26° Northeast 497 572 41,000  Level FlightAware
06:47PM 37.6210 -93.3040 26° Northeast 495 570 41,000  Level FlightAware
06:48PM 37.7040 -93.2520 26° Northeast 496 571 41,000  Level FlightAware
06:48PM 37.7920 -93.1980 26° Northeast 496 571 41,000  Level FlightAware
06:49PM 37.8820 -93.1420 26° Northeast 501 577 41,000  Level FlightAware
06:50PM 37.9640 -93.0900 27° Northeast 504 580 41,000  Level FlightAware
06:51PM 38.0530 -93.0350 26° Northeast 505 581 41,000  Level FlightAware
06:51PM 38.1460 -92.9760 27° Northeast 508 585 41,000  Level FlightAware
06:52PM 38.2300 -92.9240 26° Northeast 507 583 41,000  Level FlightAware
06:53PM 38.3160 -92.8690 27° Northeast 508 585 41,000  Level FlightAware
06:53PM 38.4090 -92.8110 26° Northeast 508 585 41,000  Level FlightAware
06:54PM 38.5040 -92.7510 26° Northeast 508 585 41,000  Level FlightAware
06:55PM 38.5890 -92.6980 26° Northeast 508 585 41,000  Level FlightAware
06:56PM 38.7060 -92.6220 27° Northeast 509 586 41,000  Level FlightAware
06:56PM 38.7800 -92.5740 27° Northeast 506 582 41,000  Level FlightAware
06:57PM 38.8670 -92.4880 38° Northeast 507 583 41,000  Level FlightAware
06:58PM 38.9200 -92.4110 48° Northeast 498 573 41,000  Level FlightAware
06:59PM 39.0080 -92.2840 48° Northeast 478 550 41,000  Level FlightAware
06:59PM 39.0540 -92.2190 48° Northeast 478 550 41,000  Level FlightAware
07:00PM 39.1270 -92.1110 49° Northeast 462 532 41,000  Level FlightAware
07:01PM 39.1910 -92.0150 49° Northeast 461 531 41,000  Level FlightAware
07:02PM 39.2520 -91.9250 49° Northeast 460 529 41,000  Level FlightAware
07:02PM 39.3070 -91.8450 48° Northeast 461 531 41,000  Level FlightAware
07:03PM 39.3750 -91.7420 49° Northeast 459 528 41,000  Level FlightAware
07:04PM 39.4460 -91.6370 49° Northeast 458 527 41,000  Level FlightAware
07:05PM 39.5400 -91.4970 49° Northeast 458 527 41,000  Level FlightAware
07:06PM 39.6010 -91.4040 50° Northeast 455 524 41,000  Level FlightAware
07:06PM 39.6550 -91.3240 49° Northeast 455 524 41,000  Level FlightAware
07:07PM 39.7190 -91.2270 49° Northeast 455 524 41,000  Level FlightAware
07:08PM 39.7730 -91.1460 49° Northeast 457 526 41,000  Level FlightAware
07:09PM 39.8320 -91.0560 49° Northeast 458 527 41,000  Level FlightAware
07:09PM 39.8900 -90.9680 49° Northeast 456 525 41,000  Level FlightAware
07:10PM 39.9420 -90.8890 49° Northeast 457 526 41,000  Level FlightAware
07:11PM 40.0210 -90.7670 50° Northeast 454 522 41,000  Level FlightAware
07:11PM 40.0520 -90.7020 58° Northeast 446 513 41,000  Level FlightAware
07:12PM 40.0580 -90.6570 80° East 442 509 41,000  Level FlightAware
07:12PM 40.0300 -90.5610 111° Southeast 428 493 41,000  Level FlightAware
07:13PM 40.0080 -90.5360 139° Southeast 424 488 41,000  Level FlightAware
07:13PM 39.9570 -90.5120 160° South 421 484 41,000  Level FlightAware
07:14PM 39.9000 -90.5230 188° South 423 487 41,000  Level FlightAware
07:14PM 39.8810 -90.5360 208° Southwest 428 493 41,000  Level FlightAware
07:14PM 39.8150 -90.6070 220° Southwest 436 502 41,000  Level FlightAware
07:15PM 39.7480 -90.6820 221° Southwest 436 502 41,000  Level FlightAware
07:16PM 39.6920 -90.7450 221° Southwest 429 494 41,000  Level FlightAware
07:17PM 39.6200 -90.8230 220° Southwest 420 483 41,000  Level FlightAware
07:17PM 39.5850 -90.9140 244° Southwest 433 498 41,000  Level FlightAware
07:18PM 39.5940 -90.9900 279° West 446 513 41,000  Level FlightAware
07:18PM 39.6250 -91.0430 307° West 453 521 41,000  Level FlightAware
07:18PM 39.6510 -91.0640 328° Northwest 454 522 41,000  Level FlightAware
07:19PM 39.7590 -91.0680 358° North 449 517 41,000  Level FlightAware
07:20PM 39.7860 -91.0350 43° Northeast 441 507 41,000  Level FlightAware
07:20PM 39.7970 -91.0050 64° Northeast 437 503 41,000  Level FlightAware
07:20PM 39.8000 -90.9720 83° East 431 496 41,000  Level FlightAware
07:21PM 39.7810 -90.8640 103° East 427 491 41,000  Level FlightAware
07:21PM 39.7450 -90.8120 132° Southeast 417 480 41,000  Level FlightAware
07:22PM 39.6990 -90.7870 157° South 415 478 41,000  Level FlightAware
07:22PM 39.6330 -90.8000 189° South 418 481 41,000  Level FlightAware
07:23PM 39.5760 -90.8320 203° Southwest 418 481 41,000  Level FlightAware
07:23PM 39.5430 -90.8950 236° Southwest 431 496 41,000  Level FlightAware
07:24PM 39.4830 -90.9620 221° Southwest 435 501 41,000 -120 Level FlightAware
07:24PM 39.4290 -91.0220 221° Southwest 434 499 40,900 -720 Descending FlightAware
07:25PM 39.3900 -91.0950 235° Southwest 439 505 40,200 -1,140 Descending FlightAware
07:25PM 39.3850 -91.1300 260° West 443 510 40,000 -300 Descending FlightAware
07:26PM 39.4010 -91.2080 285° West 456 525 40,000  Level FlightAware
07:26PM 39.4170 -91.2350 307° West 459 528 40,000  Level FlightAware
07:26PM 39.4390 -91.2560 324° Northwest 460 529 40,000  Level FlightAware
07:27PM 39.4920 -91.2750 345° North 454 522 40,000  Level FlightAware
07:27PM 39.5560 -91.2490 17° North 444 511 40,000  Level FlightAware
07:28PM 39.6180 -91.1810 40° Northeast 445 512 40,000  Level FlightAware
07:29PM 39.6870 -91.1040 41° Northeast 443 510 40,000  Level FlightAware
07:29PM 39.7400 -91.0190 51° Northeast 429 494 40,000  Level FlightAware
07:30PM 39.7380 -90.9190 91° East 415 478 40,000  Level FlightAware
07:30PM 39.7250 -90.8920 122° Southeast 413 475 40,000  Level FlightAware
07:31PM 39.6790 -90.8450 142° Southeast 412 474 40,000  Level FlightAware
07:32PM 39.5760 -90.8610 187° South 426 490 40,000 -240 Level FlightAware
07:32PM 39.5170 -90.9260 220° Southwest 424 488 39,700 -1,140 Descending FlightAware
07:33PM 39.4410 -91.0210 224° Southwest 424 488 38,300 -1,560 Descending FlightAware
07:33PM 39.4280 -91.0530 242° Southwest 425 489 37,900 -720 Descending FlightAware
07:34PM 39.4040 -91.1450 251° West 429 494 37,600 -960 Descending FlightAware
07:34PM 39.4510 -91.1990 318° Northwest 464 534 37,000 -1,380 Descending FlightAware
07:35PM 39.4700 -91.2200 320° Northwest 467 537 37,000  Level FlightAware
07:35PM 39.4980 -91.2390 332° Northwest 468 539 37,000  Level FlightAware
07:36PM 39.5850 -91.2320 North 459 528 37,000 -360 Level FlightAware
07:36PM 39.6610 -91.1570 37° Northeast 448 516 36,500 -840 Descending FlightAware
07:37PM 39.7260 -91.0890 39° Northeast 452 520 35,900 -840 Descending FlightAware
07:38PM 39.7940 -91.0180 39° Northeast 446 513 35,400 -780 Descending FlightAware
07:38PM 39.8630 -90.9490 38° Northeast 443 510 34,800 -840 Descending FlightAware
07:39PM 39.9230 -90.8870 38° Northeast 440 506 34,300 -840 Descending FlightAware
07:40PM 39.9920 -90.8170 38° Northeast 437 503 33,700 -780 Descending FlightAware
07:40PM 40.0610 -90.7460 38° Northeast 432 497 33,200 -540 Descending FlightAware
07:41PM 40.1280 -90.6770 38° Northeast 423 487 33,000 -180 Descending FlightAware
07:42PM 40.1910 -90.6120 38° Northeast 422 486 33,000  Level FlightAware
07:43PM 40.2550 -90.5450 39° Northeast 429 494 33,000  Level FlightAware
07:43PM 40.3260 -90.4710 38° Northeast 428 493 33,000  Level FlightAware
07:44PM 40.3840 -90.4100 39° Northeast 421 484 33,000  Level FlightAware
07:45PM 40.4530 -90.3390 38° Northeast 424 488 33,000  Level FlightAware
07:45PM 40.5170 -90.2710 39° Northeast 426 490 33,000  Level FlightAware
07:46PM 40.5800 -90.2050 38° Northeast 423 487 33,000 -840 Level FlightAware
07:47PM 40.6430 -90.1390 38° Northeast 431 496 31,900 -1,920 Descending FlightAware
07:47PM 40.7150 -90.0630 39° Northeast 456 525 30,300 -1,800 Descending FlightAware
07:48PM 40.7800 -89.9930 39° Northeast 461 531 29,400 -1,380 Descending FlightAware
07:49PM 40.8530 -89.9160 39° Northeast 461 531 28,400 -1,380 Descending FlightAware
07:50PM 40.9200 -89.8440 39° Northeast 457 526 27,500 -1,740 Descending FlightAware
07:50PM 40.9820 -89.7510 49° Northeast 462 532 26,000 -2,040 Descending FlightAware
07:51PM 41.0290 -89.6580 56° Northeast 464 534 24,700 -1,860 Descending FlightAware
07:52PM 41.0820 -89.5550 56° Northeast 457 526 23,500 -1,260 Descending FlightAware
07:52PM 41.1260 -89.4700 55° Northeast 440 506 23,000 -1,020 Descending FlightAware
07:53PM 41.1770 -89.3700 56° Northeast 430 495 22,100 -1,320 Descending FlightAware
07:54PM 41.2210 -89.2850 55° Northeast 425 489 21,200 -1,380 Descending FlightAware
07:54PM 41.2700 -89.1880 56° Northeast 418 481 20,200 -1,740 Descending FlightAware
07:55PM 41.3120 -89.1060 56° Northeast 428 493 18,800 -2,460 Descending FlightAware
07:56PM 41.3640 -89.0030 56° Northeast 442 509 16,800 -2,700 Descending FlightAware
07:56PM 41.4070 -88.9180 56° Northeast 417 480 15,100 -2,520 Descending FlightAware
07:57PM 41.4510 -88.8300 56° Northeast 385 443 13,400 -2,340 Descending FlightAware
07:58PM 41.4940 -88.7450 56° Northeast 376 433 11,700 -1,740 Descending FlightAware
07:59PM 41.5300 -88.6640 59° Northeast 369 425 11,000 -540 Descending FlightAware
07:59PM 41.5620 -88.5800 63° Northeast 335 386 11,000 -120 Level FlightAware
08:00PM 41.5910 -88.5100 61° Northeast 340 391 10,900 -600 Descending FlightAware
08:01PM 41.6260 -88.4270 61° Northeast 338 389 10,200 -960 Descending FlightAware
08:01PM 41.6470 -88.3820 58° Northeast 328 377 9,800 -780 Descending FlightAware
08:02PM 41.6750 -88.3400 48° Northeast 321 369 9,500 -840 Descending FlightAware
08:02PM 41.7000 -88.3050 46° Northeast 317 365 9,100 -960 Descending FlightAware
08:03PM 41.7340 -88.2580 46° Northeast 315 362 8,600 -600 Descending FlightAware
08:03PM 41.7630 -88.2190 45° Northeast 315 362 8,500 -300 Descending FlightAware
08:03PM 41.7760 -88.2000 47° Northeast 315 362 8,400 -480 Descending FlightAware
08:04PM 41.8030 -88.1620 46° Northeast 316 364 8,200 -780 Descending FlightAware
08:04PM 41.8320 -88.1210 46° Northeast 318 366 7,700 -1,020 Descending FlightAware
08:04PM 41.8410 -88.1000 60° Northeast 331 381 7,500 -1,020 Descending FlightAware
08:05PM 41.8550 -88.0410 72° East 336 387 7,000 -540 Descending FlightAware
08:05PM 41.8670 -87.9860 74° East 336 387 7,000  Level FlightAware
08:06PM 41.8810 -87.9310 71° East 329 379 7,000  Level FlightAware
08:06PM 41.8910 -87.8770 76° East 327 376 7,000  Level FlightAware
08:07PM 41.8940 -87.8160 86° East 328 377 7,000 -300 Level FlightAware
08:07PM 41.8950 -87.7910 87° East 327 376 6,800 -1,200 Descending FlightAware
08:08PM 41.8970 -87.7300 87° East 328 377 6,200 -1,080 Descending FlightAware
08:08PM 41.8990 -87.6760 87° East 326 375 5,800 -780 Descending FlightAware
08:08PM 41.9010 -87.6200 87° East 320 368 5,500 -600 Descending FlightAware
08:09PM 41.9020 -87.5970 87° East 314 361 5,400 -480 Descending FlightAware
08:09PM 41.9040 -87.5450 87° East 299 344 5,200 -480 Descending FlightAware
08:10PM 41.9070 -87.4920 86° East 287 330 5,000 -300 Descending FlightAware
08:10PM 41.9150 -87.4690 65° Northeast 277 319 5,000  Level FlightAware
08:10PM 41.9260 -87.4540 45° Northeast 264 304 5,000  Level FlightAware
08:10PM 41.9440 -87.4480 14° North 228 262 5,000  Level FlightAware
08:11PM 41.9630 -87.4620 331° Northwest 187 215 5,000  Level FlightAware
08:11PM 41.9690 -87.4810 293° West 184 212 5,000  Level FlightAware
08:11PM 41.9720 -87.4910 292° West 184 212 5,000  Level FlightAware
08:11PM 41.9760 -87.5050 291° West 184 212 5,000  Level FlightAware
08:12PM 41.9830 -87.5320 289° West 183 211 5,000  Level FlightAware
08:13PM 41.9830 -87.5780 270° West 181 208 5,000 -300 Level FlightAware
08:13PM 41.9840 -87.6080 273° West 169 194 4,700 -900 Descending FlightAware
08:13PM 41.9840 -87.6360 270° West 170 196 4,200 -900 Descending FlightAware
08:14PM 41.9840 -87.6650 270° West 157 181 3,900 -780 Descending FlightAware
08:14PM 41.9840 -87.6940 270° West 153 176 3,500 -840 Descending FlightAware
08:15PM 41.9840 -87.7230 270° West 153 176 3,100 -840 Descending FlightAware
08:15PM 41.9840 -87.7490 270° West 153 176 2,700 -780 Descending FlightAware
08:16PM 41.9840 -87.7730 270° West 150 173 2,400 -780 Descending FlightAware
08:16PM 41.9840 -87.7970 270° West 127 146 2,000 -780 Descending FlightAware
08:17PM 41.9840 -87.8190 270° West 130 150 1,700 -720 Descending FlightAware
08:17PM 41.9840 -87.8390 270° West 132 152 1,400 -720 Descending FlightAware
08:18PM 41.9840 -87.8630 270° West 137 158 1,100 -660 Descending FlightAware
08:18PM 41.9840 -87.8800 270° West 139 160 900 -600 Descending FlightAware
08:19PM 41.9840 -87.9070 270° West 57 66 -1,440 Descending FlightAware
08:19PM 41.9840 -87.9110 270° West 33 38  Level FlightAware
08:19PM 41.9840 -87.9160 270° West 24 28  Level FlightAware
08:20PM 41.9830 -87.9160 180° South 19 22  Level FlightAware
08:21PM 41.9830 -87.9150 90° East 13 15  Level FlightAware
08:22PM 41.9830 -87.9140 90° East  Level FlightAware